Etusivu
METAR-TAF:

METAR-TAF

Lentoasemat :

Springbok, Etelä-Afrikka

Leveyspiiri: 29-40S, Pituuspiiri: 17-53E, korkeus merenpinnasta: 1006 m

Tämänhetkinen sää

Tämä raportti tehtiin 22 tuntia ja 55 minuuttia sitten, kello 06.48 UTC
Tuuli 3 kn lännestä
Lämpötila 16°C
Kosteus 63%
Ilmanpaine 1017 hPa
Näkyvyys 10 km tai enemmän
Muutamia pilviä 2000 ft:n korkeudessa

METAR: FASB 180648Z 26003KT 9999 FEW020 16/09 Q1017

Aika: 07:43 (05:43 UTC)


TAF: puuttuu

Säähavainnot ja -ennusteet yli 4000 lentoasemalta (METAR- ja TAF-raportit).

Käytössä olevat sääasemat on merkitty karttaan keltaisilla ja punaisilla pisteillä.

Aseta hiiri pisteen päälle nähdäksesi sääaseman nimen.

Klikkaa sitten nähdäksesi säähavainnot ja -ennusteet.

Kartan vaihtaminen: klikkaa mustalla rastilla varustettuja vihreitä pisteitä, niin voit zoomata sisään; viivalla varustettua vihreää pistettä, niin voit zoomata ulos tai vihreitä nuolia, niin pääset viereisille kartoille.


METAR-TAF: